createdAt,value
2019-02-07T00:01:13.905Z,110.10
2019-02-07T00:04:03.626Z,115.93
2019-02-07T00:06:54.644Z,107.40
2019-02-07T00:09:44.594Z,68.20
2019-02-07T00:12:34.089Z,79.13
2019-02-07T00:15:23.800Z,80.83
2019-02-07T00:18:13.147Z,67.97
2019-02-07T00:21:02.593Z,43.00
2019-02-07T00:23:51.939Z,40.80
2019-02-07T00:26:41.485Z,33.73
2019-02-07T00:29:30.855Z,32.90
2019-02-07T00:32:21.217Z,30.63
2019-02-07T00:35:11.575Z,34.87
2019-02-07T00:38:01.767Z,35.83
2019-02-07T00:40:51.026Z,30.13
2019-02-07T00:43:40.226Z,27.53
2019-02-07T00:46:29.595Z,27.43
2019-02-07T00:49:19.912Z,28.07
2019-02-07T00:52:09.439Z,23.90
2019-02-07T00:54:59.035Z,27.53
2019-02-07T00:57:48.479Z,32.63
2019-02-07T01:00:39.223Z,39.97
2019-02-07T01:03:29.517Z,39.93
2019-02-07T01:06:19.061Z,34.70
2019-02-07T01:09:10.307Z,39.03
2019-02-07T01:11:59.349Z,39.57
2019-02-07T01:14:48.971Z,40.43
2019-02-07T01:17:38.453Z,39.97
2019-02-07T01:20:28.136Z,37.30
2019-02-07T01:23:18.010Z,43.17
2019-02-07T01:26:06.939Z,41.97
2019-02-07T01:28:56.800Z,39.77
2019-02-07T01:31:46.726Z,36.23
2019-02-07T01:34:35.770Z,32.07
2019-02-07T01:37:25.605Z,18.47
2019-02-07T01:40:18.447Z,21.07
2019-02-07T01:43:08.044Z,29.97
2019-02-07T01:45:56.992Z,28.83
2019-02-07T01:48:46.871Z,30.87
2019-02-07T01:51:36.245Z,28.87
2019-02-07T01:54:25.800Z,29.47
2019-02-07T01:57:15.485Z,27.17
2019-02-07T02:00:09.540Z,23.77
2019-02-07T02:02:58.762Z,26.10
2019-02-07T02:05:48.784Z,21.37
2019-02-07T02:08:38.648Z,24.43
2019-02-07T02:11:28.283Z,21.33
2019-02-07T02:14:18.568Z,21.37
2019-02-07T02:17:08.286Z,22.73
2019-02-07T02:19:57.431Z,27.20
2019-02-07T02:22:46.910Z,22.70
2019-02-07T02:25:35.863Z,26.77
2019-02-07T02:28:25.346Z,27.93
2019-02-07T02:31:15.106Z,26.30
2019-02-07T02:34:04.697Z,25.23
2019-02-07T02:36:54.239Z,25.77
2019-02-07T02:39:43.631Z,28.97
2019-02-07T02:42:34.745Z,22.83
2019-02-07T02:45:36.623Z,27.20
2019-02-07T02:48:16.218Z,28.83
2019-02-07T02:51:06.168Z,30.97
2019-02-07T02:53:57.193Z,27.10
2019-02-07T02:56:46.643Z,31.00
2019-02-07T02:59:36.221Z,24.37
2019-02-07T03:02:40.577Z,25.50
2019-02-07T03:05:49.507Z,23.53
2019-02-07T03:08:52.727Z,25.43
2019-02-07T03:12:04.172Z,39.60
2019-02-07T03:15:15.184Z,46.07
2019-02-07T03:18:22.186Z,46.37
2019-02-07T03:21:29.754Z,40.27
2019-02-07T03:24:39.133Z,38.87
2019-02-07T03:28:07.833Z,31.17
2019-02-07T03:31:15.749Z,29.87
2019-02-07T03:34:30.810Z,31.67
2019-02-07T03:37:35.916Z,18.43
2019-02-07T03:40:43.099Z,17.67
2019-02-07T03:43:50.432Z,15.93
2019-02-07T03:47:02.004Z,18.23
2019-02-07T03:50:05.077Z,15.87
2019-02-07T03:53:12.549Z,23.93
2019-02-07T03:56:31.856Z,31.57
2019-02-07T03:59:42.532Z,27.93
2019-02-07T04:03:03.751Z,14.87
2019-02-07T04:06:14.517Z,34.00
2019-02-07T04:09:17.723Z,28.10
2019-02-07T04:12:38.617Z,21.90
2019-02-07T04:15:58.700Z,31.93
2019-02-07T04:19:06.983Z,24.47
2019-02-07T04:22:15.462Z,26.03
2019-02-07T04:25:33.079Z,32.33
2019-02-07T04:28:45.451Z,32.40
2019-02-07T04:32:12.883Z,29.33
2019-02-07T04:35:25.368Z,27.40
2019-02-07T04:38:49.315Z,40.00
2019-02-07T04:42:20.598Z,41.80
2019-02-07T04:45:29.237Z,49.93
2019-02-07T04:48:28.544Z,83.33
2019-02-07T04:51:29.381Z,101.20
2019-02-07T04:54:52.037Z,90.67
2019-02-07T04:58:02.588Z,56.63
2019-02-07T05:01:15.746Z,65.63
2019-02-07T05:04:27.907Z,103.97
2019-02-07T05:07:38.983Z,66.63
2019-02-07T05:10:46.172Z,44.70
2019-02-07T05:13:53.007Z,42.83
2019-02-07T05:16:54.207Z,58.13
2019-02-07T05:20:02.641Z,62.13
2019-02-07T05:23:21.088Z,82.77
2019-02-07T05:26:20.746Z,74.10
2019-02-07T05:29:41.755Z,75.20
2019-02-07T05:32:54.497Z,67.53
2019-02-07T05:36:01.570Z,61.27
2019-02-07T05:39:13.153Z,51.17
2019-02-07T05:42:30.579Z,76.77
2019-02-07T05:45:39.412Z,66.00
2019-02-07T05:48:47.041Z,73.10
2019-02-07T05:52:02.190Z,66.83
2019-02-07T05:55:16.524Z,41.23
2019-02-07T05:58:24.650Z,31.70
2019-02-07T06:01:31.636Z,62.53
2019-02-07T06:04:39.018Z,75.77
2019-02-07T06:07:47.115Z,141.83
2019-02-07T06:11:11.283Z,64.23
2019-02-07T06:14:09.088Z,80.77
2019-02-07T06:17:23.385Z,94.37
2019-02-07T06:20:30.014Z,132.53
2019-02-07T06:23:46.893Z,150.87
2019-02-07T06:26:58.216Z,111.33
2019-02-07T06:29:55.389Z,124.63
2019-02-07T06:33:02.723Z,138.20
2019-02-07T06:36:04.979Z,148.03
2019-02-07T06:39:08.647Z,113.20
2019-02-07T06:42:16.295Z,111.57
2019-02-07T06:45:23.231Z,139.10
2019-02-07T06:48:34.287Z,117.00
2019-02-07T06:51:45.877Z,136.77
2019-02-07T06:54:50.833Z,30.37
2019-02-07T06:57:57.568Z,30.73
2019-02-07T07:01:08.919Z,32.40
2019-02-07T07:04:20.021Z,63.20
2019-02-07T07:07:30.632Z,64.17
2019-02-07T07:10:45.143Z,108.30
2019-02-07T07:13:53.094Z,57.37
2019-02-07T07:17:02.134Z,45.27
2019-02-07T07:20:20.392Z,42.13
2019-02-07T07:23:36.012Z,54.33
2019-02-07T07:27:02.777Z,51.07
2019-02-07T07:30:10.017Z,89.10
2019-02-07T07:33:14.316Z,83.77
2019-02-07T07:36:21.389Z,144.93
2019-02-07T07:39:39.388Z,126.43
2019-02-07T07:42:42.295Z,78.03
2019-02-07T07:45:43.237Z,131.80
2019-02-07T07:48:50.529Z,80.40
2019-02-07T07:51:58.006Z,27.67
2019-02-07T07:55:09.710Z,118.70
2019-02-07T07:58:20.275Z,147.87
2019-02-07T08:01:37.408Z,46.23
2019-02-07T08:04:54.991Z,59.20
2019-02-07T08:08:09.228Z,17.10
2019-02-07T08:11:32.642Z,14.63
2019-02-07T08:14:39.643Z,25.40
2019-02-07T08:17:47.829Z,17.33
2019-02-07T08:20:55.548Z,22.13
2019-02-07T08:24:03.568Z,18.47
2019-02-07T08:27:10.644Z,29.57
2019-02-07T08:30:16.474Z,30.50
2019-02-07T08:33:28.539Z,45.00
2019-02-07T08:36:42.320Z,19.83
2019-02-07T08:39:43.441Z,36.80
2019-02-07T08:42:50.693Z,29.60
2019-02-07T08:45:57.632Z,47.63
2019-02-07T08:49:12.443Z,19.20
2019-02-07T08:52:21.725Z,15.83
2019-02-07T08:55:48.731Z,17.60
2019-02-07T08:58:51.368Z,38.43
2019-02-07T09:02:12.686Z,38.53
2019-02-07T09:05:33.270Z,36.23
2019-02-07T09:08:32.027Z,41.37
2019-02-07T09:11:40.603Z,23.57
2019-02-07T09:14:56.769Z,29.00
2019-02-07T09:18:11.366Z,26.63
2019-02-07T09:21:11.503Z,24.67
2019-02-07T09:24:26.782Z,14.17
2019-02-07T09:27:38.419Z,13.00
2019-02-07T09:30:44.645Z,15.00
2019-02-07T09:33:53.034Z,14.80
2019-02-07T09:37:03.977Z,16.97
2019-02-07T09:40:03.632Z,20.87
2019-02-07T09:43:15.429Z,12.50
2019-02-07T09:46:32.834Z,12.53
2019-02-07T09:49:32.598Z,10.87
2019-02-07T09:52:36.963Z,19.17
2019-02-07T09:55:34.683Z,7.50
2019-02-07T09:58:41.984Z,10.50
2019-02-07T10:01:53.078Z,8.13
2019-02-07T10:04:55.707Z,11.80
2019-02-07T10:08:14.199Z,10.57
2019-02-07T10:11:32.644Z,15.63
2019-02-07T10:14:41.063Z,21.23
2019-02-07T10:17:58.612Z,12.23
2019-02-07T10:21:13.260Z,14.03
2019-02-07T10:24:33.627Z,10.97
2019-02-07T10:27:41.423Z,14.97
2019-02-07T10:30:44.550Z,12.43
2019-02-07T10:33:53.207Z,16.00
2019-02-07T10:37:07.653Z,19.07
2019-02-07T10:40:14.171Z,24.03
2019-02-07T10:43:27.556Z,15.03
2019-02-07T10:46:34.832Z,13.03
2019-02-07T10:49:44.764Z,16.57
2019-02-07T10:53:00.348Z,25.20
2019-02-07T10:56:08.984Z,14.80
2019-02-07T10:59:17.149Z,12.13
2019-02-07T11:02:29.418Z,12.80
2019-02-07T11:05:35.975Z,18.80
2019-02-07T11:08:44.704Z,20.33
2019-02-07T11:11:51.643Z,12.20
2019-02-07T11:15:03.217Z,15.07
2019-02-07T11:18:14.900Z,12.40
2019-02-07T11:21:25.487Z,15.87
2019-02-07T11:24:36.475Z,20.47
2019-02-07T11:27:34.404Z,20.80
2019-02-07T11:30:36.045Z,14.40
2019-02-07T11:33:42.170Z,11.27
2019-02-07T11:36:56.338Z,13.53
2019-02-07T11:40:12.480Z,12.17
2019-02-07T11:43:24.090Z,27.03
2019-02-07T11:46:44.441Z,13.77
2019-02-07T11:49:52.226Z,21.70
2019-02-07T11:52:54.253Z,21.83
2019-02-07T11:56:10.066Z,18.83
2019-02-07T11:59:13.544Z,11.67
2019-02-07T12:02:20.531Z,9.03
2019-02-07T12:05:35.681Z,4.40
2019-02-07T12:08:46.964Z,2.80
2019-02-07T12:11:53.329Z,6.97
2019-02-07T12:15:04.681Z,7.50
2019-02-07T12:18:25.510Z,7.30
2019-02-07T12:21:39.717Z,10.40
2019-02-07T12:24:59.948Z,13.77
2019-02-07T12:28:08.594Z,12.63
2019-02-07T12:31:15.766Z,9.97
2019-02-07T12:34:19.092Z,22.43
2019-02-07T12:37:34.399Z,23.10
2019-02-07T12:40:41.828Z,21.93
2019-02-07T12:43:56.379Z,10.30
2019-02-07T12:47:07.601Z,6.10
2019-02-07T12:50:14.224Z,8.63
2019-02-07T12:53:21.800Z,6.70
2019-02-07T12:56:28.863Z,15.40
2019-02-07T12:59:44.508Z,20.07
2019-02-07T13:03:11.088Z,23.00
2019-02-07T13:06:20.469Z,26.30
2019-02-07T13:09:40.356Z,25.97
2019-02-07T13:12:43.754Z,43.07
2019-02-07T13:16:09.943Z,24.93
2019-02-07T13:19:17.888Z,25.40
2019-02-07T13:22:10.614Z,38.47
2019-02-07T13:25:04.828Z,21.63
2019-02-07T13:27:52.977Z,16.07
2019-02-07T13:30:57.578Z,29.50
2019-02-07T13:33:46.300Z,32.47
2019-02-07T13:36:35.305Z,27.27
2019-02-07T13:39:27.735Z,63.20
2019-02-07T13:42:16.845Z,58.50
2019-02-07T13:45:18.857Z,94.27
2019-02-07T13:48:07.884Z,52.93
2019-02-07T13:50:57.094Z,62.10
2019-02-07T13:53:50.561Z,34.53
2019-02-07T13:56:55.848Z,32.40
2019-02-07T13:59:57.693Z,60.80
2019-02-07T14:03:05.726Z,50.47
2019-02-07T14:06:07.589Z,35.03
2019-02-07T14:08:48.098Z,36.67
2019-02-07T14:11:47.633Z,19.40
2019-02-07T14:14:32.392Z,52.10
2019-02-07T14:17:20.335Z,63.83
2019-02-07T14:20:13.947Z,65.77
2019-02-07T14:23:13.468Z,66.20
2019-02-07T14:26:06.229Z,54.80
2019-02-07T14:29:00.612Z,91.60
2019-02-07T14:31:49.501Z,147.63
2019-02-07T14:34:39.419Z,154.07
2019-02-07T14:37:23.945Z,84.77
2019-02-07T14:40:13.081Z,147.30
2019-02-07T14:43:22.307Z,86.83
2019-02-07T14:46:15.257Z,43.40
2019-02-07T14:48:47.148Z,32.00
2019-02-07T14:51:19.157Z,15.77
2019-02-07T14:53:51.097Z,21.67
2019-02-07T14:56:22.446Z,14.37
2019-02-07T14:58:53.735Z,13.23
2019-02-07T15:01:24.873Z,20.83
2019-02-07T15:03:56.800Z,16.57
2019-02-07T15:06:28.342Z,22.43
2019-02-07T15:08:59.461Z,11.63
2019-02-07T15:11:31.576Z,18.23
2019-02-07T15:14:02.690Z,20.10
2019-02-07T15:16:34.250Z,25.67
2019-02-07T15:19:05.265Z,36.87
2019-02-07T15:21:36.708Z,18.67
2019-02-07T15:24:09.355Z,21.20
2019-02-07T15:26:40.492Z,83.60
2019-02-07T15:29:12.293Z,33.00
2019-02-07T15:31:43.318Z,22.13
2019-02-07T15:34:14.443Z,35.57
2019-02-07T15:36:48.658Z,86.10
2019-02-07T15:39:21.822Z,92.33
2019-02-07T15:41:54.604Z,100.57
2019-02-07T15:44:25.716Z,135.37
2019-02-07T15:46:57.096Z,141.63
2019-02-07T15:49:34.570Z,119.23
2019-02-07T15:52:06.036Z,78.97
2019-02-07T15:54:38.284Z,84.57
2019-02-07T15:57:09.352Z,80.00
2019-02-07T15:59:59.351Z,63.93
2019-02-07T16:02:49.331Z,97.40
2019-02-07T16:05:21.026Z,94.90
2019-02-07T16:07:52.341Z,116.63
2019-02-07T16:10:24.463Z,99.53
2019-02-07T16:12:56.751Z,71.67
2019-02-07T16:15:28.703Z,80.87
2019-02-07T16:18:02.626Z,134.90
2019-02-07T16:20:35.579Z,71.00
2019-02-07T16:23:07.337Z,142.20
2019-02-07T16:25:42.541Z,58.10
2019-02-07T16:28:14.109Z,40.40
2019-02-07T16:30:45.780Z,57.60
2019-02-07T16:33:22.658Z,32.17
2019-02-07T16:35:54.363Z,35.90
2019-02-07T16:38:25.657Z,125.60
2019-02-07T16:40:57.019Z,202.60
2019-02-07T16:43:28.652Z,149.23
2019-02-07T16:46:00.178Z,181.30
2019-02-07T16:48:31.593Z,250.67
2019-02-07T16:51:03.000Z,291.53
2019-02-07T16:53:34.835Z,284.07
2019-02-07T16:56:08.455Z,260.97
2019-02-07T16:58:39.694Z,98.63
2019-02-07T17:01:11.303Z,86.30
2019-02-07T17:03:42.799Z,62.47
2019-02-07T17:06:14.612Z,45.30
2019-02-07T17:08:46.148Z,55.47
2019-02-07T17:11:17.227Z,58.90
2019-02-07T17:13:49.607Z,49.60
2019-02-07T17:16:25.014Z,72.27
2019-02-07T17:18:56.391Z,98.77
2019-02-07T17:21:27.647Z,99.07
2019-02-07T17:24:00.648Z,113.13
2019-02-07T17:26:31.797Z,101.67
2019-02-07T17:29:04.052Z,127.40
2019-02-07T17:31:35.263Z,125.40
2019-02-07T17:34:09.714Z,120.47
2019-02-07T17:36:56.767Z,147.20
2019-02-07T17:39:30.644Z,142.40
2019-02-07T17:42:02.253Z,143.43
2019-02-07T17:44:33.973Z,129.40
2019-02-07T17:47:05.099Z,132.23
2019-02-07T17:49:36.694Z,173.80
2019-02-07T17:52:10.109Z,191.20
2019-02-07T17:54:41.126Z,161.80
2019-02-07T17:57:12.501Z,168.17
2019-02-07T17:59:45.482Z,192.93
2019-02-07T18:02:17.509Z,213.33
2019-02-07T18:04:48.747Z,235.10
2019-02-07T18:07:20.085Z,202.37
2019-02-07T18:09:51.291Z,143.13
2019-02-07T18:12:22.884Z,127.60
2019-02-07T18:14:57.441Z,200.87
2019-02-07T18:17:35.239Z,81.43
2019-02-07T18:20:08.936Z,62.40
2019-02-07T18:25:43.142Z,39.00
2019-02-07T18:28:21.680Z,45.43
2019-02-07T18:30:53.318Z,67.27
2019-02-07T18:33:24.390Z,57.70
2019-02-07T18:35:56.047Z,57.90
2019-02-07T18:38:27.635Z,96.97
2019-02-07T18:41:00.156Z,76.97
2019-02-07T18:43:34.661Z,55.17
2019-02-07T18:46:07.897Z,157.47
2019-02-07T18:48:39.143Z,89.37
2019-02-07T18:51:14.642Z,59.77
2019-02-07T18:53:47.427Z,69.33
2019-02-07T18:56:18.510Z,345.20
2019-02-07T18:58:50.111Z,473.07
2019-02-07T19:01:21.685Z,225.83
2019-02-07T19:03:52.780Z,212.17
2019-02-07T19:06:24.108Z,117.73
2019-02-07T19:08:56.086Z,145.63
2019-02-07T19:11:27.525Z,156.67
2019-02-07T19:13:59.321Z,158.33
2019-02-07T19:16:32.370Z,184.30
2019-02-07T19:19:03.957Z,106.20
2019-02-07T19:21:35.022Z,103.10
2019-02-07T19:24:06.602Z,89.20
2019-02-07T19:26:38.176Z,54.03
2019-02-07T19:29:17.141Z,74.83
2019-02-07T19:31:49.836Z,60.70
2019-02-07T19:34:22.217Z,45.00
2019-02-07T19:36:53.855Z,50.77
2019-02-07T19:39:26.434Z,64.33
2019-02-07T19:41:58.250Z,61.13
2019-02-07T19:44:30.226Z,73.80
2019-02-07T19:47:06.813Z,93.10
2019-02-07T19:49:38.451Z,109.93
2019-02-07T19:52:10.473Z,122.90
2019-02-07T19:54:42.166Z,99.97
2019-02-07T19:57:13.757Z,96.80
2019-02-07T19:59:46.669Z,104.23
2019-02-07T20:02:18.236Z,126.23
2019-02-07T20:04:50.131Z,212.67
2019-02-07T20:07:26.224Z,179.17
2019-02-07T20:09:58.202Z,122.23
2019-02-07T20:12:29.664Z,136.93
2019-02-07T20:15:01.226Z,79.17
2019-02-07T20:17:33.496Z,66.53
2019-02-07T20:20:05.918Z,63.03
2019-02-07T20:22:37.426Z,57.47
2019-02-07T20:25:09.782Z,53.43
2019-02-07T20:27:40.893Z,55.27
2019-02-07T20:30:18.661Z,46.60
2019-02-07T20:32:50.474Z,40.07
2019-02-07T20:35:21.699Z,38.40
2019-02-07T20:37:52.842Z,44.00
2019-02-07T20:40:28.105Z,47.93
2019-02-07T20:42:59.884Z,49.77
2019-02-07T20:45:30.919Z,58.40
2019-02-07T20:48:03.066Z,52.30
2019-02-07T20:50:34.478Z,66.70
2019-02-07T20:53:05.995Z,139.60
2019-02-07T20:55:37.190Z,87.57
2019-02-07T20:58:09.822Z,68.87
2019-02-07T21:00:59.876Z,66.53
2019-02-07T21:03:48.949Z,59.77
2019-02-07T21:06:38.707Z,149.70
2019-02-07T21:09:29.037Z,70.93
2019-02-07T21:12:19.874Z,69.60
2019-02-07T21:15:18.522Z,74.87
2019-02-07T21:18:04.140Z,75.73
2019-02-07T21:20:53.906Z,78.83
2019-02-07T21:23:42.941Z,63.20
2019-02-07T21:26:37.578Z,80.17
2019-02-07T21:29:27.400Z,79.07
2019-02-07T21:32:17.111Z,80.97
2019-02-07T21:35:07.667Z,97.97
2019-02-07T21:37:57.100Z,74.10
2019-02-07T21:40:47.120Z,52.80
2019-02-07T21:43:37.247Z,56.20
2019-02-07T21:46:28.015Z,40.77
2019-02-07T21:49:18.487Z,41.53
2019-02-07T21:52:07.920Z,42.70
2019-02-07T21:55:02.363Z,44.33
2019-02-07T21:57:53.010Z,76.80
2019-02-07T22:00:44.994Z,69.90
2019-02-07T22:03:34.553Z,79.27
2019-02-07T22:06:24.011Z,156.03
2019-02-07T22:09:14.599Z,89.90
2019-02-07T22:12:04.006Z,87.17
2019-02-07T22:14:53.470Z,108.40
2019-02-07T22:17:43.678Z,99.47
2019-02-07T22:20:34.150Z,122.33
2019-02-07T22:23:24.033Z,130.37
2019-02-07T22:26:13.740Z,120.67
2019-02-07T22:29:03.849Z,120.33
2019-02-07T22:31:53.297Z,105.13
2019-02-07T22:34:42.807Z,102.57
2019-02-07T22:37:32.353Z,113.73
2019-02-07T22:40:23.047Z,119.80
2019-02-07T22:43:13.037Z,98.77
2019-02-07T22:46:02.839Z,102.70
2019-02-07T22:48:52.327Z,50.90
2019-02-07T22:51:42.218Z,37.47
2019-02-07T22:54:31.723Z,41.43
2019-02-07T22:57:21.899Z,38.10
2019-02-07T23:00:52.843Z,40.63
2019-02-07T23:03:53.881Z,56.03
2019-02-07T23:06:42.857Z,60.67
2019-02-07T23:09:33.207Z,58.17
2019-02-07T23:12:22.567Z,44.33
2019-02-07T23:15:13.113Z,41.80
2019-02-07T23:18:02.626Z,40.10
2019-02-07T23:20:52.104Z,41.13
2019-02-07T23:23:42.299Z,41.70
2019-02-07T23:26:31.767Z,44.13
2019-02-07T23:29:21.241Z,45.60
2019-02-07T23:32:11.774Z,49.90
2019-02-07T23:35:01.355Z,52.10
2019-02-07T23:37:51.302Z,54.73
2019-02-07T23:40:40.608Z,59.77
2019-02-07T23:43:30.075Z,55.57
2019-02-07T23:46:19.485Z,81.90
2019-02-07T23:49:09.044Z,63.73
2019-02-07T23:51:58.677Z,68.93
2019-02-07T23:54:48.635Z,82.57
2019-02-07T23:57:38.171Z,49.83
